sensor_id;sensor_type;location;lat;lon;timestamp;pressure;altitude;pressure_sealevel;temperature;humidity
1480;BME280;732;51.698;4.886;2022-10-16T00:01:48;100985.22;;;13.76;100.00
1480;BME280;732;51.698;4.886;2022-10-16T00:04:17;101063.56;;;14.27;100.00
1480;BME280;732;51.698;4.886;2022-10-16T00:06:45;101032.84;;;14.23;100.00
1480;BME280;732;51.698;4.886;2022-10-16T00:09:14;101092.72;;;14.63;100.00
1480;BME280;732;51.698;4.886;2022-10-16T00:11:43;101078.69;;;14.64;100.00
1480;BME280;732;51.698;4.886;2022-10-16T00:14:14;101030.28;;;14.30;100.00
1480;BME280;732;51.698;4.886;2022-10-16T00:16:43;100982.00;;;14.22;100.00
1480;BME280;732;51.698;4.886;2022-10-16T00:19:12;100981.09;;;14.20;100.00
1480;BME280;732;51.698;4.886;2022-10-16T00:21:41;101067.34;;;14.74;100.00
1480;BME280;732;51.698;4.886;2022-10-16T00:24:10;101089.38;;;14.91;100.00
1480;BME280;732;51.698;4.886;2022-10-16T00:26:39;101015.50;;;14.52;100.00
1480;BME280;732;51.698;4.886;2022-10-16T00:29:09;100839.78;;;13.62;100.00
1480;BME280;732;51.698;4.886;2022-10-16T00:31:37;100947.78;;;14.13;100.00
1480;BME280;732;51.698;4.886;2022-10-16T00:34:08;100913.56;;;14.03;100.00
1480;BME280;732;51.698;4.886;2022-10-16T00:36:38;101095.53;;;14.96;100.00
1480;BME280;732;51.698;4.886;2022-10-16T00:39:07;101019.94;;;14.62;100.00
1480;BME280;732;51.698;4.886;2022-10-16T00:41:35;100956.66;;;14.30;100.00
1480;BME280;732;51.698;4.886;2022-10-16T00:44:44;100937.38;;;14.27;100.00
1480;BME280;732;51.698;4.886;2022-10-16T00:47:19;101121.94;;;15.22;100.00
1480;BME280;732;51.698;4.886;2022-10-16T00:49:53;101122.00;;;15.37;100.00
1480;BME280;732;51.698;4.886;2022-10-16T00:52:26;101125.59;;;15.54;100.00
1480;BME280;732;51.698;4.886;2022-10-16T00:54:55;100975.22;;;14.64;100.00
1480;BME280;732;51.698;4.886;2022-10-16T00:57:25;101041.13;;;15.00;100.00
1480;BME280;732;51.698;4.886;2022-10-16T00:59:54;100985.72;;;14.61;100.00
1480;BME280;732;51.698;4.886;2022-10-16T01:02:24;101001.59;;;14.83;100.00
1480;BME280;732;51.698;4.886;2022-10-16T01:04:54;100991.09;;;14.91;100.00
1480;BME280;732;51.698;4.886;2022-10-16T01:07:37;101080.75;;;15.38;100.00
1480;BME280;732;51.698;4.886;2022-10-16T01:10:19;100941.88;;;14.58;100.00
1480;BME280;732;51.698;4.886;2022-10-16T01:12:55;101090.34;;;15.23;100.00
1480;BME280;732;51.698;4.886;2022-10-16T01:15:29;101075.38;;;15.07;100.00
1480;BME280;732;51.698;4.886;2022-10-16T01:18:03;101052.53;;;14.96;100.00
1480;BME280;732;51.698;4.886;2022-10-16T01:20:40;100989.25;;;14.61;100.00
1480;BME280;732;51.698;4.886;2022-10-16T01:23:21;100956.72;;;14.41;100.00
1480;BME280;732;51.698;4.886;2022-10-16T01:26:34;100992.75;;;14.59;100.00
1480;BME280;732;51.698;4.886;2022-10-16T01:29:12;100974.25;;;14.41;100.00
1480;BME280;732;51.698;4.886;2022-10-16T01:31:50;100915.31;;;14.01;100.00
1480;BME280;732;51.698;4.886;2022-10-16T01:34:25;100997.84;;;14.30;100.00
1480;BME280;732;51.698;4.886;2022-10-16T01:37:05;100974.09;;;14.19;100.00
1480;BME280;732;51.698;4.886;2022-10-16T01:39:39;101046.28;;;14.73;100.00
1480;BME280;732;51.698;4.886;2022-10-16T01:42:16;100913.63;;;14.15;100.00
1480;BME280;732;51.698;4.886;2022-10-16T01:44:48;101064.84;;;15.10;100.00
1480;BME280;732;51.698;4.886;2022-10-16T01:47:22;101034.97;;;14.90;100.00
1480;BME280;732;51.698;4.886;2022-10-16T01:49:53;101097.38;;;15.23;100.00
1480;BME280;732;51.698;4.886;2022-10-16T01:52:26;101005.00;;;14.60;100.00
1480;BME280;732;51.698;4.886;2022-10-16T01:54:58;101067.44;;;15.01;100.00
1480;BME280;732;51.698;4.886;2022-10-16T01:57:28;101025.97;;;14.45;100.00
1480;BME280;732;51.698;4.886;2022-10-16T02:00:05;101064.72;;;14.76;100.00
1480;BME280;732;51.698;4.886;2022-10-16T02:02:40;101032.19;;;14.56;100.00
1480;BME280;732;51.698;4.886;2022-10-16T02:05:17;101060.28;;;14.64;100.00
1480;BME280;732;51.698;4.886;2022-10-16T02:07:48;100952.00;;;13.87;100.00
1480;BME280;732;51.698;4.886;2022-10-16T02:10:21;101047.03;;;14.49;100.00
1480;BME280;732;51.698;4.886;2022-10-16T02:12:56;100994.19;;;14.13;100.00
1480;BME280;732;51.698;4.886;2022-10-16T02:15:28;100889.66;;;13.59;100.00
1480;BME280;732;51.698;4.886;2022-10-16T02:17:57;101083.94;;;14.67;100.00
1480;BME280;732;51.698;4.886;2022-10-16T02:20:28;100947.69;;;13.94;100.00
1480;BME280;732;51.698;4.886;2022-10-16T02:23:01;101058.41;;;14.42;100.00
1480;BME280;732;51.698;4.886;2022-10-16T02:25:35;101030.31;;;14.37;100.00
1480;BME280;732;51.698;4.886;2022-10-16T02:28:09;100993.41;;;14.26;100.00
1480;BME280;732;51.698;4.886;2022-10-16T02:30:45;101045.34;;;14.57;100.00
1480;BME280;732;51.698;4.886;2022-10-16T02:33:17;101021.63;;;14.51;100.00
1480;BME280;732;51.698;4.886;2022-10-16T02:35:48;100878.34;;;13.71;100.00
1480;BME280;732;51.698;4.886;2022-10-16T02:38:18;101120.06;;;14.89;100.00
1480;BME280;732;51.698;4.886;2022-10-16T02:40:49;100997.72;;;14.15;100.00
1480;BME280;732;51.698;4.886;2022-10-16T02:43:18;101042.66;;;14.50;100.00
1480;BME280;732;51.698;4.886;2022-10-16T02:45:49;100882.56;;;13.48;100.00
1480;BME280;732;51.698;4.886;2022-10-16T02:48:17;100996.88;;;14.19;100.00
1480;BME280;732;51.698;4.886;2022-10-16T02:50:46;100931.84;;;13.82;100.00
1480;BME280;732;51.698;4.886;2022-10-16T02:53:15;101095.41;;;14.74;100.00
1480;BME280;732;51.698;4.886;2022-10-16T02:55:44;101068.97;;;14.54;100.00
1480;BME280;732;51.698;4.886;2022-10-16T02:58:13;101119.16;;;14.87;100.00
1480;BME280;732;51.698;4.886;2022-10-16T03:00:41;100855.28;;;13.24;100.00
1480;BME280;732;51.698;4.886;2022-10-16T03:03:11;100902.69;;;13.44;100.00
1480;BME280;732;51.698;4.886;2022-10-16T03:05:40;101031.94;;;14.18;100.00
1480;BME280;732;51.698;4.886;2022-10-16T03:08:08;101126.94;;;14.68;100.00
1480;BME280;732;51.698;4.886;2022-10-16T03:10:37;101011.69;;;14.05;100.00
1480;BME280;732;51.698;4.886;2022-10-16T03:13:06;101031.94;;;14.22;100.00
1480;BME280;732;51.698;4.886;2022-10-16T03:15:34;101028.53;;;14.31;100.00
1480;BME280;732;51.698;4.886;2022-10-16T03:18:03;101065.41;;;14.39;100.00
1480;BME280;732;51.698;4.886;2022-10-16T03:20:33;101105.00;;;14.61;100.00
1480;BME280;732;51.698;4.886;2022-10-16T03:23:02;101133.94;;;14.66;100.00
1480;BME280;732;51.698;4.886;2022-10-16T03:25:31;101117.16;;;14.46;100.00
1480;BME280;732;51.698;4.886;2022-10-16T03:28:00;101162.94;;;14.73;100.00
1480;BME280;732;51.698;4.886;2022-10-16T03:30:31;101120.78;;;14.64;100.00
1480;BME280;732;51.698;4.886;2022-10-16T03:33:00;101034.50;;;14.12;100.00
1480;BME280;732;51.698;4.886;2022-10-16T03:35:29;101150.63;;;14.66;100.00
1480;BME280;732;51.698;4.886;2022-10-16T03:37:59;101095.88;;;14.18;100.00
1480;BME280;732;51.698;4.886;2022-10-16T03:40:28;101023.78;;;13.85;100.00
1480;BME280;732;51.698;4.886;2022-10-16T03:42:59;101153.16;;;14.54;100.00
1480;BME280;732;51.698;4.886;2022-10-16T03:45:27;101011.50;;;13.79;100.00
1480;BME280;732;51.698;4.886;2022-10-16T03:47:56;101080.94;;;14.10;100.00
1480;BME280;732;51.698;4.886;2022-10-16T03:50:27;101113.53;;;14.27;100.00
1480;BME280;732;51.698;4.886;2022-10-16T03:52:56;101018.38;;;13.64;100.00
1480;BME280;732;51.698;4.886;2022-10-16T03:55:29;101113.47;;;14.25;100.00
1480;BME280;732;51.698;4.886;2022-10-16T03:57:58;101142.56;;;14.41;100.00
1480;BME280;732;51.698;4.886;2022-10-16T04:00:27;101123.03;;;14.14;100.00
1480;BME280;732;51.698;4.886;2022-10-16T04:02:56;101070.22;;;13.86;100.00
1480;BME280;732;51.698;4.886;2022-10-16T04:05:26;101167.88;;;14.31;100.00
1480;BME280;732;51.698;4.886;2022-10-16T04:07:54;100944.47;;;13.20;100.00
1480;BME280;732;51.698;4.886;2022-10-16T04:10:23;101106.25;;;13.99;100.00
1480;BME280;732;51.698;4.886;2022-10-16T04:12:53;101157.38;;;14.31;100.00
1480;BME280;732;51.698;4.886;2022-10-16T04:15:27;101116.69;;;13.90;100.00
1480;BME280;732;51.698;4.886;2022-10-16T04:17:55;101192.53;;;14.42;100.00
1480;BME280;732;51.698;4.886;2022-10-16T04:20:24;101120.22;;;13.93;100.00
1480;BME280;732;51.698;4.886;2022-10-16T04:22:53;101022.41;;;13.27;100.00
1480;BME280;732;51.698;4.886;2022-10-16T04:25:21;101047.97;;;13.45;100.00
1480;BME280;732;51.698;4.886;2022-10-16T04:27:54;101064.50;;;13.37;100.00
1480;BME280;732;51.698;4.886;2022-10-16T04:30:23;101084.81;;;13.57;100.00
1480;BME280;732;51.698;4.886;2022-10-16T04:32:52;100995.72;;;12.91;100.00
1480;BME280;732;51.698;4.886;2022-10-16T04:35:22;101142.75;;;13.72;100.00
1480;BME280;732;51.698;4.886;2022-10-16T04:37:50;100937.50;;;12.45;100.00
1480;BME280;732;51.698;4.886;2022-10-16T04:40:19;101191.09;;;13.89;100.00
1480;BME280;732;51.698;4.886;2022-10-16T04:42:48;101105.75;;;13.49;100.00
1480;BME280;732;51.698;4.886;2022-10-16T04:45:18;100996.66;;;12.94;100.00
1480;BME280;732;51.698;4.886;2022-10-16T04:47:47;101023.13;;;13.11;100.00
1480;BME280;732;51.698;4.886;2022-10-16T04:50:16;101175.16;;;13.69;100.00
1480;BME280;732;51.698;4.886;2022-10-16T04:53:03;101230.66;;;14.01;100.00
1480;BME280;732;51.698;4.886;2022-10-16T04:55:35;101105.56;;;13.29;100.00
1480;BME280;732;51.698;4.886;2022-10-16T04:58:05;101237.66;;;14.03;100.00
1480;BME280;732;51.698;4.886;2022-10-16T05:00:35;101185.66;;;13.71;100.00
1480;BME280;732;51.698;4.886;2022-10-16T05:03:05;101249.06;;;14.01;100.00
1480;BME280;732;51.698;4.886;2022-10-16T05:05:36;101117.59;;;13.12;100.00
1480;BME280;732;51.698;4.886;2022-10-16T05:08:05;101143.94;;;13.18;100.00
1480;BME280;732;51.698;4.886;2022-10-16T05:10:34;101111.25;;;12.98;100.00
1480;BME280;732;51.698;4.886;2022-10-16T05:13:05;101240.09;;;13.82;100.00
1480;BME280;732;51.698;4.886;2022-10-16T05:15:36;101156.28;;;13.30;100.00
1480;BME280;732;51.698;4.886;2022-10-16T05:18:04;101196.88;;;13.56;100.00
1480;BME280;732;51.698;4.886;2022-10-16T05:20:33;101247.00;;;13.77;100.00
1480;BME280;732;51.698;4.886;2022-10-16T05:23:04;101030.25;;;12.55;100.00
1480;BME280;732;51.698;4.886;2022-10-16T05:25:36;101081.38;;;12.86;100.00
1480;BME280;732;51.698;4.886;2022-10-16T05:28:05;101196.81;;;13.52;100.00
1480;BME280;732;51.698;4.886;2022-10-16T05:30:37;101085.91;;;12.97;100.00
1480;BME280;732;51.698;4.886;2022-10-16T05:33:06;101196.06;;;13.62;100.00
1480;BME280;732;51.698;4.886;2022-10-16T05:35:34;101199.63;;;13.67;100.00
1480;BME280;732;51.698;4.886;2022-10-16T05:38:03;101119.44;;;13.19;100.00
1480;BME280;732;51.698;4.886;2022-10-16T05:40:32;101192.56;;;13.63;100.00
1480;BME280;732;51.698;4.886;2022-10-16T05:43:01;101304.66;;;14.37;100.00
1480;BME280;732;51.698;4.886;2022-10-16T05:45:29;101267.69;;;14.22;100.00
1480;BME280;732;51.698;4.886;2022-10-16T05:48:00;101295.97;;;14.43;100.00
1480;BME280;732;51.698;4.886;2022-10-16T05:50:29;101168.16;;;13.71;100.00
1480;BME280;732;51.698;4.886;2022-10-16T05:52:58;101312.75;;;14.60;100.00
1480;BME280;732;51.698;4.886;2022-10-16T05:55:26;101286.28;;;14.40;100.00
1480;BME280;732;51.698;4.886;2022-10-16T05:57:55;101167.38;;;13.81;100.00
1480;BME280;732;51.698;4.886;2022-10-16T06:00:26;101316.28;;;14.59;100.00
1480;BME280;732;51.698;4.886;2022-10-16T06:02:55;101117.06;;;13.43;100.00
1480;BME280;732;51.698;4.886;2022-10-16T06:05:26;101324.16;;;14.59;100.00
1480;BME280;732;51.698;4.886;2022-10-16T06:07:55;101274.69;;;14.21;100.00
1480;BME280;732;51.698;4.886;2022-10-16T06:10:24;101276.41;;;14.19;100.00
1480;BME280;732;51.698;4.886;2022-10-16T06:12:52;101094.00;;;13.14;100.00
1480;BME280;732;51.698;4.886;2022-10-16T06:15:21;101139.78;;;13.40;100.00
1480;BME280;732;51.698;4.886;2022-10-16T06:17:50;101113.53;;;13.38;100.00
1480;BME280;732;51.698;4.886;2022-10-16T06:20:18;101157.69;;;13.74;100.00
1480;BME280;732;51.698;4.886;2022-10-16T06:22:48;101184.94;;;13.85;100.00
1480;BME280;732;51.698;4.886;2022-10-16T06:25:17;101091.59;;;13.33;100.00
1480;BME280;732;51.698;4.886;2022-10-16T06:27:49;101290.72;;;14.43;100.00
1480;BME280;732;51.698;4.886;2022-10-16T06:30:17;101148.97;;;13.78;100.00
1480;BME280;732;51.698;4.886;2022-10-16T06:32:47;101365.72;;;14.96;100.00
1480;BME280;732;51.698;4.886;2022-10-16T06:35:15;101219.41;;;14.14;100.00
1480;BME280;732;51.698;4.886;2022-10-16T06:37:47;101154.16;;;13.72;100.00
1480;BME280;732;51.698;4.886;2022-10-16T06:40:16;101340.22;;;14.86;100.00
1480;BME280;732;51.698;4.886;2022-10-16T06:42:44;101223.81;;;14.18;100.00
1480;BME280;732;51.698;4.886;2022-10-16T06:45:13;101368.34;;;14.94;100.00
1480;BME280;732;51.698;4.886;2022-10-16T06:47:42;101313.78;;;14.71;100.00
1480;BME280;732;51.698;4.886;2022-10-16T06:50:11;101294.28;;;14.52;100.00
1480;BME280;732;51.698;4.886;2022-10-16T06:52:40;101259.09;;;14.40;100.00
1480;BME280;732;51.698;4.886;2022-10-16T06:55:10;101136.75;;;13.85;100.00
1480;BME280;732;51.698;4.886;2022-10-16T06:57:39;101272.50;;;14.67;100.00
1480;BME280;732;51.698;4.886;2022-10-16T07:00:08;101331.56;;;15.00;100.00
1480;BME280;732;51.698;4.886;2022-10-16T07:02:37;101364.25;;;15.28;100.00
1480;BME280;732;51.698;4.886;2022-10-16T07:05:07;101255.06;;;14.82;100.00
1480;BME280;732;51.698;4.886;2022-10-16T07:07:38;101342.38;;;15.38;100.00
1480;BME280;732;51.698;4.886;2022-10-16T07:10:09;101257.03;;;15.09;100.00
1480;BME280;732;51.698;4.886;2022-10-16T07:12:38;101252.63;;;15.06;100.00
1480;BME280;732;51.698;4.886;2022-10-16T07:15:08;101383.09;;;15.87;100.00
1480;BME280;732;51.698;4.886;2022-10-16T07:17:37;101262.28;;;15.07;100.00
1480;BME280;732;51.698;4.886;2022-10-16T07:20:09;101234.22;;;15.06;100.00
1480;BME280;732;51.698;4.886;2022-10-16T07:22:38;101287.88;;;15.25;100.00
1480;BME280;732;51.698;4.886;2022-10-16T07:25:09;101306.31;;;15.29;100.00
1480;BME280;732;51.698;4.886;2022-10-16T07:27:38;101330.84;;;15.22;100.00
1480;BME280;732;51.698;4.886;2022-10-16T07:30:10;101391.53;;;15.41;100.00
1480;BME280;732;51.698;4.886;2022-10-16T07:32:39;101354.38;;;15.00;100.00
1480;BME280;732;51.698;4.886;2022-10-16T07:35:08;101393.06;;;15.10;100.00
1480;BME280;732;51.698;4.886;2022-10-16T07:37:39;101327.69;;;14.59;100.00
1480;BME280;732;51.698;4.886;2022-10-16T07:40:10;101481.06;;;15.36;100.00
1480;BME280;732;51.698;4.886;2022-10-16T07:42:39;101450.94;;;15.04;100.00
1480;BME280;732;51.698;4.886;2022-10-16T07:45:09;101353.84;;;14.44;100.00
1480;BME280;732;51.698;4.886;2022-10-16T07:47:37;101468.47;;;15.03;100.00
1480;BME280;732;51.698;4.886;2022-10-16T07:50:10;101384.59;;;14.53;100.00
1480;BME280;732;51.698;4.886;2022-10-16T07:52:38;101278.69;;;13.88;100.00
1480;BME280;732;51.698;4.886;2022-10-16T07:55:09;101482.50;;;15.01;100.00
1480;BME280;732;51.698;4.886;2022-10-16T07:57:38;101412.81;;;14.66;100.00
1480;BME280;732;51.698;4.886;2022-10-16T08:00:09;101362.56;;;14.43;100.00
1480;BME280;732;51.698;4.886;2022-10-16T08:02:43;101303.50;;;14.12;100.00
1480;BME280;732;51.698;4.886;2022-10-16T08:05:12;101471.16;;;15.11;100.00
1480;BME280;732;51.698;4.886;2022-10-16T08:07:44;101493.28;;;15.25;100.00
1480;BME280;732;51.698;4.886;2022-10-16T08:10:21;101406.63;;;14.62;100.00
1480;BME280;732;51.698;4.886;2022-10-16T08:12:50;101530.34;;;15.46;100.00
1480;BME280;732;51.698;4.886;2022-10-16T08:15:19;101329.19;;;14.33;100.00
1480;BME280;732;51.698;4.886;2022-10-16T08:17:56;101359.19;;;14.52;100.00
1480;BME280;732;51.698;4.886;2022-10-16T08:20:27;101412.25;;;14.98;100.00
1480;BME280;732;51.698;4.886;2022-10-16T08:22:55;101382.56;;;15.14;100.00
1480;BME280;732;51.698;4.886;2022-10-16T08:25:26;101447.16;;;15.72;100.00
1480;BME280;732;51.698;4.886;2022-10-16T08:27:55;101486.94;;;16.13;100.00
1480;BME280;732;51.698;4.886;2022-10-16T08:30:26;101496.69;;;16.31;100.00
1480;BME280;732;51.698;4.886;2022-10-16T08:32:54;101488.78;;;16.29;100.00
1480;BME280;732;51.698;4.886;2022-10-16T08:35:23;101389.22;;;15.80;100.00
1480;BME280;732;51.698;4.886;2022-10-16T08:37:53;101415.63;;;15.93;100.00
1480;BME280;732;51.698;4.886;2022-10-16T08:40:28;101365.19;;;15.41;100.00
1480;BME280;732;51.698;4.886;2022-10-16T08:43:33;101409.31;;;15.69;100.00
1480;BME280;732;51.698;4.886;2022-10-16T08:46:21;101314.94;;;15.07;100.00
1480;BME280;732;51.698;4.886;2022-10-16T08:48:55;101550.56;;;16.60;100.00
1480;BME280;732;51.698;4.886;2022-10-16T08:51:29;101378.59;;;15.65;100.00
1480;BME280;732;51.698;4.886;2022-10-16T08:54:02;101560.28;;;16.73;100.00
1480;BME280;732;51.698;4.886;2022-10-16T08:56:33;101473.00;;;16.38;100.00
1480;BME280;732;51.698;4.886;2022-10-16T08:59:06;101474.78;;;16.41;100.00
1480;BME280;732;51.698;4.886;2022-10-16T09:01:41;101534.84;;;16.87;100.00
1480;BME280;732;51.698;4.886;2022-10-16T09:04:45;101557.78;;;17.01;100.00
1480;BME280;732;51.698;4.886;2022-10-16T09:07:31;101568.38;;;17.13;100.00
1480;BME280;732;51.698;4.886;2022-10-16T09:10:21;101526.97;;;17.06;100.00
1480;BME280;732;51.698;4.886;2022-10-16T09:13:00;101553.44;;;17.40;100.00
1480;BME280;732;51.698;4.886;2022-10-16T09:15:37;101445.09;;;16.96;100.00
1480;BME280;732;51.698;4.886;2022-10-16T09:18:16;101503.28;;;17.53;100.00
1480;BME280;732;51.698;4.886;2022-10-16T09:20:51;101566.78;;;17.95;100.00
1480;BME280;732;51.698;4.886;2022-10-16T09:23:34;101560.56;;;18.13;100.00
1480;BME280;732;51.698;4.886;2022-10-16T09:26:04;101555.28;;;18.16;100.00
1480;BME280;732;51.698;4.886;2022-10-16T09:28:35;101490.06;;;17.77;100.00
1480;BME280;732;51.698;4.886;2022-10-16T09:31:04;101548.19;;;18.33;100.00
1480;BME280;732;51.698;4.886;2022-10-16T09:33:37;101411.63;;;17.82;100.00
1480;BME280;732;51.698;4.886;2022-10-16T09:36:09;101513.78;;;18.36;100.00
1480;BME280;732;51.698;4.886;2022-10-16T09:38:39;101500.53;;;18.36;100.00
1480;BME280;732;51.698;4.886;2022-10-16T09:41:17;101297.16;;;17.22;100.00
1480;BME280;732;51.698;4.886;2022-10-16T09:43:54;101538.44;;;18.65;100.00
1480;BME280;732;51.698;4.886;2022-10-16T09:46:30;101545.44;;;18.74;100.00
1480;BME280;732;51.698;4.886;2022-10-16T09:49:00;101568.31;;;18.99;100.00
1480;BME280;732;51.698;4.886;2022-10-16T09:51:34;101562.94;;;19.10;100.00
1480;BME280;732;51.698;4.886;2022-10-16T09:54:15;101532.97;;;18.95;100.00
1480;BME280;732;51.698;4.886;2022-10-16T09:56:43;101496.81;;;18.90;100.00
1480;BME280;732;51.698;4.886;2022-10-16T09:59:21;101540.84;;;19.14;100.00
1480;BME280;732;51.698;4.886;2022-10-16T10:01:52;101577.94;;;19.20;100.00
1480;BME280;732;51.698;4.886;2022-10-16T10:04:23;101477.53;;;18.67;100.00
1480;BME280;732;51.698;4.886;2022-10-16T10:06:56;101394.81;;;18.00;100.00
1480;BME280;732;51.698;4.886;2022-10-16T10:09:28;101561.16;;;19.12;100.00
1480;BME280;732;51.698;4.886;2022-10-16T10:12:03;101557.56;;;19.20;100.00
1480;BME280;732;51.698;4.886;2022-10-16T10:14:37;101512.66;;;19.00;100.00
1480;BME280;732;51.698;4.886;2022-10-16T10:17:14;101554.88;;;19.38;100.00
1480;BME280;732;51.698;4.886;2022-10-16T10:19:49;101550.44;;;19.31;100.00
1480;BME280;732;51.698;4.886;2022-10-16T10:22:25;101574.16;;;19.63;100.00
1480;BME280;732;51.698;4.886;2022-10-16T10:25:15;101568.00;;;19.55;100.00
1480;BME280;732;51.698;4.886;2022-10-16T10:30:56;101583.81;;;19.71;100.00
1480;BME280;732;51.698;4.886;2022-10-16T10:33:37;101573.97;;;19.82;100.00
1480;BME280;732;51.698;4.886;2022-10-16T10:36:23;101511.47;;;19.48;100.00
1480;BME280;732;51.698;4.886;2022-10-16T10:38:59;101586.28;;;19.94;100.00
1480;BME280;732;51.698;4.886;2022-10-16T10:42:15;101546.44;;;19.98;100.00
1480;BME280;732;51.698;4.886;2022-10-16T10:45:07;101478.69;;;19.63;100.00
1480;BME280;732;51.698;4.886;2022-10-16T10:47:53;101569.16;;;20.31;100.00
1480;BME280;732;51.698;4.886;2022-10-16T10:50:35;101454.75;;;19.67;100.00
1480;BME280;732;51.698;4.886;2022-10-16T10:53:21;101511.34;;;19.63;100.00
1480;BME280;732;51.698;4.886;2022-10-16T10:56:00;101558.09;;;19.76;100.00
1480;BME280;732;51.698;4.886;2022-10-16T11:02:04;101471.84;;;19.24;100.00
1480;BME280;732;51.698;4.886;2022-10-16T11:05:29;101602.91;;;20.17;100.00
1480;BME280;732;51.698;4.886;2022-10-16T11:08:08;101582.59;;;20.12;100.00
1480;BME280;732;51.698;4.886;2022-10-16T11:10:47;101544.66;;;19.99;100.00
1480;BME280;732;51.698;4.886;2022-10-16T11:13:28;101418.78;;;19.38;100.00
1480;BME280;732;51.698;4.886;2022-10-16T11:16:13;101558.69;;;20.13;100.00
1480;BME280;732;51.698;4.886;2022-10-16T11:18:54;101580.50;;;20.47;100.00
1480;BME280;732;51.698;4.886;2022-10-16T11:21:33;101513.72;;;19.98;100.00
1480;BME280;732;51.698;4.886;2022-10-16T11:24:14;101562.03;;;20.36;100.00
1480;BME280;732;51.698;4.886;2022-10-16T11:26:47;101480.81;;;20.14;100.00
1480;BME280;732;51.698;4.886;2022-10-16T11:29:23;101530.78;;;20.58;100.00
1480;BME280;732;51.698;4.886;2022-10-16T11:31:59;101566.97;;;20.66;100.00
1480;BME280;732;51.698;4.886;2022-10-16T11:34:36;101600.44;;;20.87;100.00
1480;BME280;732;51.698;4.886;2022-10-16T11:37:12;101600.59;;;20.70;100.00
1480;BME280;732;51.698;4.886;2022-10-16T11:39:44;101500.19;;;20.25;100.00
1480;BME280;732;51.698;4.886;2022-10-16T11:42:19;101495.00;;;20.10;100.00
1480;BME280;732;51.698;4.886;2022-10-16T11:44:59;101592.44;;;20.85;100.00
1480;BME280;732;51.698;4.886;2022-10-16T11:47:35;101490.25;;;20.44;100.00
1480;BME280;732;51.698;4.886;2022-10-16T11:50:31;101486.63;;;20.48;100.00
1480;BME280;732;51.698;4.886;2022-10-16T11:53:11;101527.00;;;20.78;100.00
1480;BME280;732;51.698;4.886;2022-10-16T11:55:43;101615.78;;;21.35;100.00
1480;BME280;732;51.698;4.886;2022-10-16T11:58:25;101597.19;;;21.32;100.00
1480;BME280;732;51.698;4.886;2022-10-16T12:01:02;101595.66;;;21.16;100.00
1480;BME280;732;51.698;4.886;2022-10-16T12:03:39;101619.41;;;21.30;100.00
1480;BME280;732;51.698;4.886;2022-10-16T12:06:22;101636.03;;;21.44;100.00
1480;BME280;732;51.698;4.886;2022-10-16T12:08:55;101520.41;;;21.10;100.00
1480;BME280;732;51.698;4.886;2022-10-16T12:11:39;101561.72;;;21.33;100.00
1480;BME280;732;51.698;4.886;2022-10-16T12:14:36;101612.47;;;21.77;100.00
1480;BME280;732;51.698;4.886;2022-10-16T12:17:33;101559.97;;;21.34;100.00
1480;BME280;732;51.698;4.886;2022-10-16T12:20:27;101580.13;;;21.48;100.00
1480;BME280;732;51.698;4.886;2022-10-16T12:23:01;101459.16;;;20.52;100.00
1480;BME280;732;51.698;4.886;2022-10-16T12:25:34;101630.66;;;21.48;100.00
1480;BME280;732;51.698;4.886;2022-10-16T12:28:06;101497.75;;;20.80;100.00
1480;BME280;732;51.698;4.886;2022-10-16T12:30:53;101515.41;;;20.84;100.00
1480;BME280;732;51.698;4.886;2022-10-16T12:33:25;101451.50;;;20.95;100.00
1480;BME280;732;51.698;4.886;2022-10-16T12:35:55;101564.41;;;21.90;100.00
1480;BME280;732;51.698;4.886;2022-10-16T12:38:27;101552.63;;;22.04;100.00
1480;BME280;732;51.698;4.886;2022-10-16T12:41:00;101480.78;;;21.51;100.00
1480;BME280;732;51.698;4.886;2022-10-16T12:43:40;101458.63;;;21.50;100.00
1480;BME280;732;51.698;4.886;2022-10-16T12:46:32;101504.97;;;21.89;100.00
1480;BME280;732;51.698;4.886;2022-10-16T12:49:21;101519.25;;;21.85;100.00
1480;BME280;732;51.698;4.886;2022-10-16T12:51:51;101539.78;;;21.74;100.00
1480;BME280;732;51.698;4.886;2022-10-16T12:54:25;101538.97;;;21.70;100.00
1480;BME280;732;51.698;4.886;2022-10-16T12:57:28;101492.19;;;21.57;100.00
1480;BME280;732;51.698;4.886;2022-10-16T13:00:17;101535.25;;;21.83;100.00
1480;BME280;732;51.698;4.886;2022-10-16T13:03:48;101609.19;;;22.18;100.00
1480;BME280;732;51.698;4.886;2022-10-16T13:06:34;101623.47;;;22.14;100.00
1480;BME280;732;51.698;4.886;2022-10-16T13:09:19;101527.81;;;21.47;100.00
1480;BME280;732;51.698;4.886;2022-10-16T13:12:11;101539.75;;;21.80;100.00
1480;BME280;732;51.698;4.886;2022-10-16T13:15:07;101506.03;;;21.79;100.00
1480;BME280;732;51.698;4.886;2022-10-16T13:17:47;101544.81;;;22.42;100.00
1480;BME280;732;51.698;4.886;2022-10-16T13:20:24;101433.78;;;22.00;100.00
1480;BME280;732;51.698;4.886;2022-10-16T13:23:06;101571.25;;;22.99;100.00
1480;BME280;732;51.698;4.886;2022-10-16T13:25:48;101602.75;;;23.21;100.00
1480;BME280;732;51.698;4.886;2022-10-16T13:28:30;101632.66;;;23.38;100.00
1480;BME280;732;51.698;4.886;2022-10-16T13:31:01;101604.66;;;23.16;100.00
1480;BME280;732;51.698;4.886;2022-10-16T13:33:33;101520.47;;;22.62;100.00
1480;BME280;732;51.698;4.886;2022-10-16T13:36:05;101551.09;;;22.86;100.00
1480;BME280;732;51.698;4.886;2022-10-16T13:38:35;101642.66;;;23.27;100.00
1480;BME280;732;51.698;4.886;2022-10-16T13:41:12;101585.66;;;23.33;100.00
1480;BME280;732;51.698;4.886;2022-10-16T13:43:45;101612.88;;;23.85;100.00
1480;BME280;732;51.698;4.886;2022-10-16T13:46:16;101539.09;;;23.81;100.00
1480;BME280;732;51.698;4.886;2022-10-16T13:48:56;101553.75;;;24.00;100.00
1480;BME280;732;51.698;4.886;2022-10-16T13:51:27;101552.66;;;23.74;100.00
1480;BME280;732;51.698;4.886;2022-10-16T13:53:59;101591.75;;;24.13;100.00